sensor_id;sensor_type;location;lat;lon;timestamp;P1;P4;P2;P0;N10;N4;N25;N1;N05;TS
71550;SPS30;59367;48.414;9.872;2023-01-28T00:00:54;18.40557098;;18.19239807;;;;;;;
71550;SPS30;59367;48.414;9.872;2023-01-28T00:01:58;18.05655861;;17.88093376;;;;;;;
71550;SPS30;59367;48.414;9.872;2023-01-28T00:03:03;18.54357147;;18.17297745;;;;;;;
71550;SPS30;59367;48.414;9.872;2023-01-28T00:04:07;18.82059097;;18.54918671;;;;;;;
71550;SPS30;59367;48.414;9.872;2023-01-28T00:05:12;18.15823364;;18.03030968;;;;;;;
71550;SPS30;59367;48.414;9.872;2023-01-28T00:06:17;18.80189133;;18.67836571;;;;;;;
71550;SPS30;59367;48.414;9.872;2023-01-28T00:07:21;18.42965126;;18.13586235;;;;;;;
71550;SPS30;59367;48.414;9.872;2023-01-28T00:08:26;18.79352188;;18.55027771;;;;;;;
71550;SPS30;59367;48.414;9.872;2023-01-28T00:09:30;18.56227684;;18.23281097;;;;;;;
71550;SPS30;59367;48.414;9.872;2023-01-28T00:10:35;19.49223709;;19.14516449;;;;;;;
71550;SPS30;59367;48.414;9.872;2023-01-28T00:11:40;19.43110657;;19.38682175;;;;;;;
71550;SPS30;59367;48.414;9.872;2023-01-28T00:12:44;19.51723862;;19.39036751;;;;;;;
71550;SPS30;59367;48.414;9.872;2023-01-28T00:13:51;19.05191803;;18.94894028;;;;;;;
71550;SPS30;59367;48.414;9.872;2023-01-28T00:14:56;18.46915245;;18.42444229;;;;;;;
71550;SPS30;59367;48.414;9.872;2023-01-28T00:16:01;19.50863838;;19.23427582;;;;;;;
71550;SPS30;59367;48.414;9.872;2023-01-28T00:17:07;19.42511177;;19.09991264;;;;;;;
71550;SPS30;59367;48.414;9.872;2023-01-28T00:18:12;21.1627636;;20.83214951;;;;;;;
71550;SPS30;59367;48.414;9.872;2023-01-28T00:19:16;20.7698822;;20.44763947;;;;;;;
71550;SPS30;59367;48.414;9.872;2023-01-28T00:20:21;21.74454308;;21.25396538;;;;;;;
71550;SPS30;59367;48.414;9.872;2023-01-28T00:21:26;21.83364868;;21.61192131;;;;;;;
71550;SPS30;59367;48.414;9.872;2023-01-28T00:22:30;25.23625183;;24.86061668;;;;;;;
71550;SPS30;59367;48.414;9.872;2023-01-28T00:23:36;23.00632668;;22.59526443;;;;;;;
71550;SPS30;59367;48.414;9.872;2023-01-28T00:24:41;21.20354843;;20.93902016;;;;;;;
71550;SPS30;59367;48.414;9.872;2023-01-28T00:25:46;20.77804565;;20.62737274;;;;;;;
71550;SPS30;59367;48.414;9.872;2023-01-28T00:26:51;19.57203102;;19.1760273;;;;;;;
71550;SPS30;59367;48.414;9.872;2023-01-28T00:27:55;17.40601349;;17.12470627;;;;;;;
71550;SPS30;59367;48.414;9.872;2023-01-28T00:29:00;18.71582031;;18.23137856;;;;;;;
71550;SPS30;59367;48.414;9.872;2023-01-28T00:30:06;18.30642128;;18.0632534;;;;;;;
71550;SPS30;59367;48.414;9.872;2023-01-28T00:31:12;18.62144089;;18.43127823;;;;;;;
71550;SPS30;59367;48.414;9.872;2023-01-28T00:32:19;19.56596375;;19.18213272;;;;;;;
71550;SPS30;59367;48.414;9.872;2023-01-28T00:33:23;20.2300396;;19.96861649;;;;;;;
71550;SPS30;59367;48.414;9.872;2023-01-28T00:34:28;19.72094536;;19.52705002;;;;;;;
71550;SPS30;59367;48.414;9.872;2023-01-28T00:35:32;20.92949867;;20.84174156;;;;;;;
71550;SPS30;59367;48.414;9.872;2023-01-28T00:36:37;21.13320351;;20.81011009;;;;;;;
71550;SPS30;59367;48.414;9.872;2023-01-28T00:37:41;20.74618721;;20.57201958;;;;;;;
71550;SPS30;59367;48.414;9.872;2023-01-28T00:38:52;18.84917259;;18.80416489;;;;;;;
71550;SPS30;59367;48.414;9.872;2023-01-28T00:39:57;20.23763657;;20.08565521;;;;;;;
71550;SPS30;59367;48.414;9.872;2023-01-28T00:41:08;19.32678604;;19.16055679;;;;;;;
71550;SPS30;59367;48.414;9.872;2023-01-28T00:42:13;18.31853485;;18.10326576;;;;;;;
71550;SPS30;59367;48.414;9.872;2023-01-28T00:43:18;18.70893097;;18.51670074;;;;;;;
71550;SPS30;59367;48.414;9.872;2023-01-28T00:44:23;20.61144257;;20.42984772;;;;;;;
71550;SPS30;59367;48.414;9.872;2023-01-28T00:45:28;20.41043282;;20.07229614;;;;;;;
71550;SPS30;59367;48.414;9.872;2023-01-28T00:46:32;20.11115646;;19.70687294;;;;;;;
71550;SPS30;59367;48.414;9.872;2023-01-28T00:47:37;19.50202179;;18.88568878;;;;;;;
71550;SPS30;59367;48.414;9.872;2023-01-28T00:48:42;19.97058296;;19.69060707;;;;;;;
71550;SPS30;59367;48.414;9.872;2023-01-28T00:49:47;18.95184135;;18.3874855;;;;;;;
71550;SPS30;59367;48.414;9.872;2023-01-28T00:50:51;19.68153191;;19.27186775;;;;;;;
71550;SPS30;59367;48.414;9.872;2023-01-28T00:51:56;21.26553726;;20.99781418;;;;;;;
71550;SPS30;59367;48.414;9.872;2023-01-28T00:53:01;20.71141434;;20.35618973;;;;;;;
71550;SPS30;59367;48.414;9.872;2023-01-28T00:54:06;20.98652077;;20.68799591;;;;;;;
71550;SPS30;59367;48.414;9.872;2023-01-28T00:55:12;19.09540939;;18.86184692;;;;;;;
71550;SPS30;59367;48.414;9.872;2023-01-28T00:56:16;20.6628437;;20.50273705;;;;;;;
71550;SPS30;59367;48.414;9.872;2023-01-28T00:57:21;19.65444565;;19.34752274;;;;;;;
71550;SPS30;59367;48.414;9.872;2023-01-28T00:58:26;19.49169922;;19.31851196;;;;;;;
71550;SPS30;59367;48.414;9.872;2023-01-28T00:59:31;19.67362022;;19.3497715;;;;;;;
71550;SPS30;59367;48.414;9.872;2023-01-28T01:00:35;20.6836586;;20.32101631;;;;;;;
71550;SPS30;59367;48.414;9.872;2023-01-28T01:01:40;20.34265709;;19.99698257;;;;;;;
71550;SPS30;59367;48.414;9.872;2023-01-28T01:02:45;21.20615387;;20.7090683;;;;;;;
71550;SPS30;59367;48.414;9.872;2023-01-28T01:03:50;19.83132362;;19.49202156;;;;;;;
71550;SPS30;59367;48.414;9.872;2023-01-28T01:04:55;21.18839645;;20.69868088;;;;;;;
71550;SPS30;59367;48.414;9.872;2023-01-28T01:05:59;20.97833633;;20.35797119;;;;;;;
71550;SPS30;59367;48.414;9.872;2023-01-28T01:07:04;20.57337952;;19.99471474;;;;;;;
71550;SPS30;59367;48.414;9.872;2023-01-28T01:08:09;20.67982674;;20.25898552;;;;;;;
71550;SPS30;59367;48.414;9.872;2023-01-28T01:09:14;20.0038681;;19.62425804;;;;;;;
71550;SPS30;59367;48.414;9.872;2023-01-28T01:10:18;20.32164955;;19.64485931;;;;;;;
71550;SPS30;59367;48.414;9.872;2023-01-28T01:11:23;21.02180672;;20.28407097;;;;;;;
71550;SPS30;59367;48.414;9.872;2023-01-28T01:12:28;19.11948395;;18.47225952;;;;;;;
71550;SPS30;59367;48.414;9.872;2023-01-28T01:13:33;19.9547596;;19.13435364;;;;;;;
71550;SPS30;59367;48.414;9.872;2023-01-28T01:14:38;19.73386192;;19.26004601;;;;;;;
71550;SPS30;59367;48.414;9.872;2023-01-28T01:15:42;17.96489525;;17.56908035;;;;;;;
71550;SPS30;59367;48.414;9.872;2023-01-28T01:16:47;18.82995415;;18.33914566;;;;;;;
71550;SPS30;59367;48.414;9.872;2023-01-28T01:17:51;18.85293007;;18.31955338;;;;;;;
71550;SPS30;59367;48.414;9.872;2023-01-28T01:18:56;17.70221519;;17.28569412;;;;;;;
71550;SPS30;59367;48.414;9.872;2023-01-28T01:20:00;18.48095703;;17.93298912;;;;;;;
71550;SPS30;59367;48.414;9.872;2023-01-28T01:21:08;17.22433281;;16.59506035;;;;;;;
71550;SPS30;59367;48.414;9.872;2023-01-28T01:22:14;16.63358307;;16.37577057;;;;;;;
71550;SPS30;59367;48.414;9.872;2023-01-28T01:23:19;18.81404686;;18.47329521;;;;;;;
71550;SPS30;59367;48.414;9.872;2023-01-28T01:24:24;19.00264359;;18.56969643;;;;;;;
71550;SPS30;59367;48.414;9.872;2023-01-28T01:25:28;16.90211296;;16.55259132;;;;;;;
71550;SPS30;59367;48.414;9.872;2023-01-28T01:26:33;17.41059494;;17.02879715;;;;;;;
71550;SPS30;59367;48.414;9.872;2023-01-28T01:27:37;17.56966591;;17.00222778;;;;;;;
71550;SPS30;59367;48.414;9.872;2023-01-28T01:28:42;18.93728447;;18.32239532;;;;;;;
71550;SPS30;59367;48.414;9.872;2023-01-28T01:29:47;17.37101173;;17.11291504;;;;;;;
71550;SPS30;59367;48.414;9.872;2023-01-28T01:30:57;16.61343575;;16.34733963;;;;;;;
71550;SPS30;59367;48.414;9.872;2023-01-28T01:32:03;16.44817924;;15.95087242;;;;;;;
71550;SPS30;59367;48.414;9.872;2023-01-28T01:33:08;17.74417114;;17.43948174;;;;;;;
71550;SPS30;59367;48.414;9.872;2023-01-28T01:34:12;16.60578918;;16.25250053;;;;;;;
71550;SPS30;59367;48.414;9.872;2023-01-28T01:35:17;17.12965965;;16.75823784;;;;;;;
71550;SPS30;59367;48.414;9.872;2023-01-28T01:36:21;17.66145897;;17.27641678;;;;;;;
71550;SPS30;59367;48.414;9.872;2023-01-28T01:37:26;17.31490707;;16.82001495;;;;;;;
71550;SPS30;59367;48.414;9.872;2023-01-28T01:38:31;18.14095688;;17.56677055;;;;;;;
71550;SPS30;59367;48.414;9.872;2023-01-28T01:39:35;16.41790199;;16.08605003;;;;;;;
71550;SPS30;59367;48.414;9.872;2023-01-28T01:40:40;16.38996124;;15.99609756;;;;;;;
71550;SPS30;59367;48.414;9.872;2023-01-28T01:41:44;15.54057598;;15.27737236;;;;;;;
71550;SPS30;59367;48.414;9.872;2023-01-28T01:42:49;17.62285423;;16.98487663;;;;;;;
71550;SPS30;59367;48.414;9.872;2023-01-28T01:43:54;17.17973328;;16.61718369;;;;;;;
71550;SPS30;59367;48.414;9.872;2023-01-28T01:45:01;16.38083267;;15.99758339;;;;;;;
71550;SPS30;59367;48.414;9.872;2023-01-28T01:46:07;16.39990044;;16.083992;;;;;;;
71550;SPS30;59367;48.414;9.872;2023-01-28T01:47:11;16.75478554;;16.21104431;;;;;;;
71550;SPS30;59367;48.414;9.872;2023-01-28T01:48:18;16.7482872;;16.19927216;;;;;;;
71550;SPS30;59367;48.414;9.872;2023-01-28T01:49:26;15.99012661;;15.81577206;;;;;;;
71550;SPS30;59367;48.414;9.872;2023-01-28T01:50:32;16.04788971;;15.8840971;;;;;;;
71550;SPS30;59367;48.414;9.872;2023-01-28T01:51:42;17.74840546;;17.49938011;;;;;;;
71550;SPS30;59367;48.414;9.872;2023-01-28T01:52:48;17.39125824;;17.10189629;;;;;;;
71550;SPS30;59367;48.414;9.872;2023-01-28T01:53:57;18.09949303;;17.77001762;;;;;;;
71550;SPS30;59367;48.414;9.872;2023-01-28T01:55:05;16.89385605;;16.49865341;;;;;;;
71550;SPS30;59367;48.414;9.872;2023-01-28T01:56:14;15.4162426;;15.10781765;;;;;;;
71550;SPS30;59367;48.414;9.872;2023-01-28T01:57:23;17.43893814;;16.93504333;;;;;;;
71550;SPS30;59367;48.414;9.872;2023-01-28T01:58:32;15.30236435;;14.96241283;;;;;;;
71550;SPS30;59367;48.414;9.872;2023-01-28T01:59:40;15.18103313;;14.92994499;;;;;;;
71550;SPS30;59367;48.414;9.872;2023-01-28T02:00:46;15.95740795;;15.64727688;;;;;;;
71550;SPS30;59367;48.414;9.872;2023-01-28T02:01:50;16.98934937;;16.67829895;;;;;;;
71550;SPS30;59367;48.414;9.872;2023-01-28T02:02:56;16.50536537;;16.07291412;;;;;;;
71550;SPS30;59367;48.414;9.872;2023-01-28T02:04:03;16.40917969;;15.72313881;;;;;;;
71550;SPS30;59367;48.414;9.872;2023-01-28T02:05:12;15.8360281;;15.2935257;;;;;;;
71550;SPS30;59367;48.414;9.872;2023-01-28T02:06:19;15.2330637;;14.92703629;;;;;;;
71550;SPS30;59367;48.414;9.872;2023-01-28T02:07:25;14.87289429;;14.44773197;;;;;;;
71550;SPS30;59367;48.414;9.872;2023-01-28T02:08:30;15.73374939;;15.0948143;;;;;;;
71550;SPS30;59367;48.414;9.872;2023-01-28T02:09:35;15.68697453;;15.43562412;;;;;;;
71550;SPS30;59367;48.414;9.872;2023-01-28T02:10:40;14.10019875;;13.80324841;;;;;;;
71550;SPS30;59367;48.414;9.872;2023-01-28T02:11:45;15.03722668;;14.75870132;;;;;;;
71550;SPS30;59367;48.414;9.872;2023-01-28T02:12:52;13.38840103;;13.32179451;;;;;;;
71550;SPS30;59367;48.414;9.872;2023-01-28T02:14:01;15.55295563;;15.18791199;;;;;;;
71550;SPS30;59367;48.414;9.872;2023-01-28T02:15:09;16.75252724;;16.13743591;;;;;;;
71550;SPS30;59367;48.414;9.872;2023-01-28T02:16:17;15.94554806;;15.63432789;;;;;;;
71550;SPS30;59367;48.414;9.872;2023-01-28T02:17:22;15.3728056;;15.13577843;;;;;;;
71550;SPS30;59367;48.414;9.872;2023-01-28T02:18:28;14.81178284;;14.41009998;;;;;;;
71550;SPS30;59367;48.414;9.872;2023-01-28T02:19:35;15.32878113;;14.87560177;;;;;;;
71550;SPS30;59367;48.414;9.872;2023-01-28T02:20:49;14.52661324;;14.28453636;;;;;;;
71550;SPS30;59367;48.414;9.872;2023-01-28T02:22:15;14.3833189;;14.06884193;;;;;;;
71550;SPS30;59367;48.414;9.872;2023-01-28T02:23:46;14.73291969;;14.39104176;;;;;;;
71550;SPS30;59367;48.414;9.872;2023-01-28T02:25:10;13.56277847;;13.34352684;;;;;;;
71550;SPS30;59367;48.414;9.872;2023-01-28T02:26:54;14.55937576;;14.30195045;;;;;;;
71550;SPS30;59367;48.414;9.872;2023-01-28T02:28:16;15.15804577;;14.87546349;;;;;;;
71550;SPS30;59367;48.414;9.872;2023-01-28T02:29:30;14.13415718;;13.80762005;;;;;;;
71550;SPS30;59367;48.414;9.872;2023-01-28T02:30:41;15.40908623;;14.89433479;;;;;;;
71550;SPS30;59367;48.414;9.872;2023-01-28T02:31:52;14.44583797;;14.2225275;;;;;;;
71550;SPS30;59367;48.414;9.872;2023-01-28T02:33:02;13.5402174;;13.24936485;;;;;;;
71550;SPS30;59367;48.414;9.872;2023-01-28T02:34:14;15.27868748;;14.79505444;;;;;;;
71550;SPS30;59367;48.414;9.872;2023-01-28T02:35:28;14.37898827;;14.15337181;;;;;;;
71550;SPS30;59367;48.414;9.872;2023-01-28T02:36:37;13.77667427;;13.63630581;;;;;;;
71550;SPS30;59367;48.414;9.872;2023-01-28T02:37:48;12.95825768;;12.77967072;;;;;;;
71550;SPS30;59367;48.414;9.872;2023-01-28T02:39:00;14.32433319;;13.98560715;;;;;;;
71550;SPS30;59367;48.414;9.872;2023-01-28T02:40:10;14.13115883;;13.98798847;;;;;;;
71550;SPS30;59367;48.414;9.872;2023-01-28T02:41:22;13.71711159;;13.57609558;;;;;;;
71550;SPS30;59367;48.414;9.872;2023-01-28T02:42:31;13.40956116;;13.18498325;;;;;;;
71550;SPS30;59367;48.414;9.872;2023-01-28T02:43:39;13.53555775;;13.34455013;;;;;;;
71550;SPS30;59367;48.414;9.872;2023-01-28T02:44:45;12.9907093;;12.88333607;;;;;;;
71550;SPS30;59367;48.414;9.872;2023-01-28T02:45:50;12.86995506;;12.70279884;;;;;;;
71550;SPS30;59367;48.414;9.872;2023-01-28T02:46:54;14.47542953;;14.24523354;;;;;;;
71550;SPS30;59367;48.414;9.872;2023-01-28T02:47:59;13.74643326;;13.57436657;;;;;;;
71550;SPS30;59367;48.414;9.872;2023-01-28T02:49:05;12.75290871;;12.60153961;;;;;;;
71550;SPS30;59367;48.414;9.872;2023-01-28T02:50:13;13.20585251;;13.1511507;;;;;;;
71550;SPS30;59367;48.414;9.872;2023-01-28T02:51:22;12.5465765;;12.37893105;;;;;;;
71550;SPS30;59367;48.414;9.872;2023-01-28T02:52:39;14.13420105;;13.92575455;;;;;;;
71550;SPS30;59367;48.414;9.872;2023-01-28T02:53:54;14.54410076;;14.32603836;;;;;;;
71550;SPS30;59367;48.414;9.872;2023-01-28T02:55:06;13.87487221;;13.67414284;;;;;;;
71550;SPS30;59367;48.414;9.872;2023-01-28T02:56:19;15.55324554;;15.34834862;;;;;;;
71550;SPS30;59367;48.414;9.872;2023-01-28T02:57:33;13.98086643;;13.78597641;;;;;;;
71550;SPS30;59367;48.414;9.872;2023-01-28T02:58:46;13.64852238;;13.27390766;;;;;;;
71550;SPS30;59367;48.414;9.872;2023-01-28T03:00:00;13.32329082;;13.17035294;;;;;;;
71550;SPS30;59367;48.414;9.872;2023-01-28T03:01:13;13.08395576;;12.82282257;;;;;;;
71550;SPS30;59367;48.414;9.872;2023-01-28T03:02:26;13.45343781;;13.17394638;;;;;;;
71550;SPS30;59367;48.414;9.872;2023-01-28T03:03:37;13.34466934;;13.11114693;;;;;;;
71550;SPS30;59367;48.414;9.872;2023-01-28T03:04:52;13.43304443;;13.08821106;;;;;;;
71550;SPS30;59367;48.414;9.872;2023-01-28T03:06:01;12.79162884;;12.58595085;;;;;;;
71550;SPS30;59367;48.414;9.872;2023-01-28T03:07:09;13.40860462;;13.2032814;;;;;;;
71550;SPS30;59367;48.414;9.872;2023-01-28T03:08:16;12.92109108;;12.79308796;;;;;;;
71550;SPS30;59367;48.414;9.872;2023-01-28T03:09:21;13.9648447;;13.95115566;;;;;;;
71550;SPS30;59367;48.414;9.872;2023-01-28T03:10:27;13.93923092;;13.80899811;;;;;;;
71550;SPS30;59367;48.414;9.872;2023-01-28T03:11:33;13.49084473;;13.30605888;;;;;;;
71550;SPS30;59367;48.414;9.872;2023-01-28T03:12:40;13.02364922;;12.92982769;;;;;;;
71550;SPS30;59367;48.414;9.872;2023-01-28T03:13:50;12.75057793;;12.56811714;;;;;;;
71550;SPS30;59367;48.414;9.872;2023-01-28T03:14:56;14.17594433;;13.79235649;;;;;;;
71550;SPS30;59367;48.414;9.872;2023-01-28T03:16:03;13.84279537;;13.52024174;;;;;;;
71550;SPS30;59367;48.414;9.872;2023-01-28T03:17:09;13.71944046;;13.44573498;;;;;;;
71550;SPS30;59367;48.414;9.872;2023-01-28T03:18:19;13.8399086;;13.53933811;;;;;;;
71550;SPS30;59367;48.414;9.872;2023-01-28T03:19:29;13.0561142;;12.82221603;;;;;;;
71550;SPS30;59367;48.414;9.872;2023-01-28T03:20:37;13.24759769;;13.10844803;;;;;;;
71550;SPS30;59367;48.414;9.872;2023-01-28T03:21:44;13.57755089;;13.32765198;;;;;;;
71550;SPS30;59367;48.414;9.872;2023-01-28T03:22:50;13.06022644;;12.69258404;;;;;;;
71550;SPS30;59367;48.414;9.872;2023-01-28T03:24:00;12.79268456;;12.56888962;;;;;;;
71550;SPS30;59367;48.414;9.872;2023-01-28T03:25:07;13.03009319;;12.81923676;;;;;;;
71550;SPS30;59367;48.414;9.872;2023-01-28T03:26:14;13.21831322;;12.96016026;;;;;;;
71550;SPS30;59367;48.414;9.872;2023-01-28T03:27:23;13.60569763;;13.19348335;;;;;;;
71550;SPS30;59367;48.414;9.872;2023-01-28T03:28:35;13.74232578;;13.477561;;;;;;;
71550;SPS30;59367;48.414;9.872;2023-01-28T03:29:41;13.13619614;;12.89713097;;;;;;;
71550;SPS30;59367;48.414;9.872;2023-01-28T03:30:49;12.33860588;;12.02554607;;;;;;;
71550;SPS30;59367;48.414;9.872;2023-01-28T03:31:59;11.88656998;;11.72045326;;;;;;;
71550;SPS30;59367;48.414;9.872;2023-01-28T03:33:04;11.75106621;;11.5301218;;;;;;;
71550;SPS30;59367;48.414;9.872;2023-01-28T03:34:10;13.23068428;;12.95124245;;;;;;;
71550;SPS30;59367;48.414;9.872;2023-01-28T03:35:16;11.63457108;;11.45451736;;;;;;;
71550;SPS30;59367;48.414;9.872;2023-01-28T03:36:24;12.37384892;;12.07294273;;;;;;;
71550;SPS30;59367;48.414;9.872;2023-01-28T03:37:29;13.48501301;;13.22428513;;;;;;;
71550;SPS30;59367;48.414;9.872;2023-01-28T03:38:35;12.85933208;;12.68413639;;;;;;;
71550;SPS30;59367;48.414;9.872;2023-01-28T03:39:40;13.24169159;;12.92290878;;;;;;;
71550;SPS30;59367;48.414;9.872;2023-01-28T03:40:49;15.20582199;;14.89665127;;;;;;;
71550;SPS30;59367;48.414;9.872;2023-01-28T03:41:58;20.95965767;;20.35313416;;;;;;;
71550;SPS30;59367;48.414;9.872;2023-01-28T03:43:04;18.66004562;;18.27691841;;;;;;;
71550;SPS30;59367;48.414;9.872;2023-01-28T03:44:08;12.87762642;;12.65861988;;;;;;;
71550;SPS30;59367;48.414;9.872;2023-01-28T03:45:13;13.75174236;;13.55633545;;;;;;;
71550;SPS30;59367;48.414;9.872;2023-01-28T03:46:18;16.51019287;;16.29585648;;;;;;;
71550;SPS30;59367;48.414;9.872;2023-01-28T03:47:23;14.4839325;;14.25285435;;;;;;;
71550;SPS30;59367;48.414;9.872;2023-01-28T03:48:29;11.7194519;;11.48610401;;;;;;;
71550;SPS30;59367;48.414;9.872;2023-01-28T03:49:34;12.59522629;;12.24590397;;;;;;;
71550;SPS30;59367;48.414;9.872;2023-01-28T03:50:38;13.73467064;;13.48209763;;;;;;;
71550;SPS30;59367;48.414;9.872;2023-01-28T03:51:43;13.5519104;;13.46837807;;;;;;;
71550;SPS30;59367;48.414;9.872;2023-01-28T03:52:47;12.39327431;;12.34854794;;;;;;;
71550;SPS30;59367;48.414;9.872;2023-01-28T03:53:52;13.36820698;;13.28059483;;;;;;;
71550;SPS30;59367;48.414;9.872;2023-01-28T03:54:56;12.71385479;;12.63259029;;;;;;;
71550;SPS30;59367;48.414;9.872;2023-01-28T03:56:01;12.67838192;;12.61855793;;;;;;;
71550;SPS30;59367;48.414;9.872;2023-01-28T03:57:06;12.70024776;;12.68876839;;;;;;;
71550;SPS30;59367;48.414;9.872;2023-01-28T03:58:11;12.42283154;;12.30853939;;;;;;;
71550;SPS30;59367;48.414;9.872;2023-01-28T03:59:16;12.17665672;;11.95121574;;;;;;;
71550;SPS30;59367;48.414;9.872;2023-01-28T04:00:21;11.90151596;;11.65616226;;;;;;;
71550;SPS30;59367;48.414;9.872;2023-01-28T04:01:25;12.60005856;;12.44654465;;;;;;;
71550;SPS30;59367;48.414;9.872;2023-01-28T04:02:30;10.73783302;;10.3829565;;;;;;;
71550;SPS30;59367;48.414;9.872;2023-01-28T04:03:34;11.99520874;;11.63187981;;;;;;;
71550;SPS30;59367;48.414;9.872;2023-01-28T04:04:39;13.17571735;;12.79998112;;;;;;;
71550;SPS30;59367;48.414;9.872;2023-01-28T04:05:45;11.58683395;;11.39541054;;;;;;;
71550;SPS30;59367;48.414;9.872;2023-01-28T04:06:58;11.3658247;;11.29345226;;;;;;;
71550;SPS30;59367;48.414;9.872;2023-01-28T04:08:03;10.97576237;;10.88834763;;;;;;;
71550;SPS30;59367;48.414;9.872;2023-01-28T04:09:08;12.82089138;;12.5632267;;;;;;;
71550;SPS30;59367;48.414;9.872;2023-01-28T04:10:12;14.73886108;;14.27824879;;;;;;;
71550;SPS30;59367;48.414;9.872;2023-01-28T04:11:17;12.19420338;;11.91153622;;;;;;;
71550;SPS30;59367;48.414;9.872;2023-01-28T04:12:22;11.75299931;;11.45973301;;;;;;;
71550;SPS30;59367;48.414;9.872;2023-01-28T04:13:26;12.03225899;;11.76549435;;;;;;;
71550;SPS30;59367;48.414;9.872;2023-01-28T04:14:31;10.8770113;;10.71473312;;;;;;;
71550;SPS30;59367;48.414;9.872;2023-01-28T04:15:36;11.38500023;;11.28781891;;;;;;;
71550;SPS30;59367;48.414;9.872;2023-01-28T04:16:40;12.77950954;;12.61480427;;;;;;;
71550;SPS30;59367;48.414;9.872;2023-01-28T04:17:45;10.23460102;;10.05286598;;;;;;;
71550;SPS30;59367;48.414;9.872;2023-01-28T04:18:50;11.12966728;;11.0438261;;;;;;;
71550;SPS30;59367;48.414;9.872;2023-01-28T04:19:54;10.72141552;;10.59991646;;;;;;;
71550;SPS30;59367;48.414;9.872;2023-01-28T04:20:59;11.38324165;;11.09736156;;;;;;;
71550;SPS30;59367;48.414;9.872;2023-01-28T04:22:05;11.30857468;;11.00535679;;;;;;;
71550;SPS30;59367;48.414;9.872;2023-01-28T04:23:12;12.27598953;;11.92057419;;;;;;;
71550;SPS30;59367;48.414;9.872;2023-01-28T04:24:16;12.29388618;;11.99961662;;;;;;;
71550;SPS30;59367;48.414;9.872;2023-01-28T04:25:21;13.2680397;;12.87389469;;;;;;;
71550;SPS30;59367;48.414;9.872;2023-01-28T04:26:26;11.4099226;;11.12434292;;;;;;;
71550;SPS30;59367;48.414;9.872;2023-01-28T04:27:30;12.12128544;;11.88902569;;;;;;;
71550;SPS30;59367;48.414;9.872;2023-01-28T04:28:35;11.75233078;;11.64442253;;;;;;;
71550;SPS30;59367;48.414;9.872;2023-01-28T04:29:39;10.73656178;;10.62689304;;;;;;;
71550;SPS30;59367;48.414;9.872;2023-01-28T04:30:44;11.12220001;;11.01721096;;;;;;;
71550;SPS30;59367;48.414;9.872;2023-01-28T04:31:48;11.75285244;;11.64103317;;;;;;;
71550;SPS30;59367;48.414;9.872;2023-01-28T04:32:53;12.04434681;;11.94278908;;;;;;;
71550;SPS30;59367;48.414;9.872;2023-01-28T04:33:57;12.19071579;;12.17685699;;;;;;;
71550;SPS30;59367;48.414;9.872;2023-01-28T04:35:02;12.01820946;;11.99565411;;;;;;;
71550;SPS30;59367;48.414;9.872;2023-01-28T04:36:07;11.97283268;;11.94213104;;;;;;;
71550;SPS30;59367;48.414;9.872;2023-01-28T04:37:12;11.67462254;;11.59455013;;;;;;;
71550;SPS30;59367;48.414;9.872;2023-01-28T04:38:17;13.24326611;;12.94166756;;;;;;;
71550;SPS30;59367;48.414;9.872;2023-01-28T04:39:21;12.82455158;;12.5684166;;;;;;;
71550;SPS30;59367;48.414;9.872;2023-01-28T04:40:26;12.84319878;;12.65469551;;;;;;;
71550;SPS30;59367;48.414;9.872;2023-01-28T04:41:30;12.75163746;;12.54406357;;;;;;;
71550;SPS30;59367;48.414;9.872;2023-01-28T04:42:35;12.76353741;;12.75876522;;;;;;;
71550;SPS30;59367;48.414;9.872;2023-01-28T04:43:40;12.50637817;;12.36445427;;;;;;;
71550;SPS30;59367;48.414;9.872;2023-01-28T04:44:44;12.04953003;;11.86952209;;;;;;;
71550;SPS30;59367;48.414;9.872;2023-01-28T04:45:49;12.17638111;;12.06013775;;;;;;;
71550;SPS30;59367;48.414;9.872;2023-01-28T04:46:54;12.71948719;;12.51975155;;;;;;;
71550;SPS30;59367;48.414;9.872;2023-01-28T04:47:59;12.22843552;;12.12674618;;;;;;;
71550;SPS30;59367;48.414;9.872;2023-01-28T04:49:03;12.14784908;;12.02858925;;;;;;;
71550;SPS30;59367;48.414;9.872;2023-01-28T04:50:08;12.07004929;;12.01425171;;;;;;;
71550;SPS30;59367;48.414;9.872;2023-01-28T04:51:13;13.27807713;;13.11534882;;;;;;;
71550;SPS30;59367;48.414;9.872;2023-01-28T04:52:18;12.93310165;;12.74122715;;;;;;;
71550;SPS30;59367;48.414;9.872;2023-01-28T04:53:22;12.33100986;;12.11823845;;;;;;;
71550;SPS30;59367;48.414;9.872;2023-01-28T04:54:27;12.85977936;;12.60180473;;;;;;;
71550;SPS30;59367;48.414;9.872;2023-01-28T04:55:31;12.89696693;;12.78615856;;;;;;;
71550;SPS30;59367;48.414;9.872;2023-01-28T04:56:36;12.81319809;;12.71638775;;;;;;;
71550;SPS30;59367;48.414;9.872;2023-01-28T04:57:40;11.32200241;;11.32101059;;;;;;;
71550;SPS30;59367;48.414;9.872;2023-01-28T04:58:45;11.71984959;;11.67699337;;;;;;;
71550;SPS30;59367;48.414;9.872;2023-01-28T04:59:49;13.23659992;;13.15464973;;;;;;;
71550;SPS30;59367;48.414;9.872;2023-01-28T05:00:56;12.17537403;;11.96766472;;;;;;;
71550;SPS30;59367;48.414;9.872;2023-01-28T05:02:01;12.84637165;;12.5435915;;;;;;;
71550;SPS30;59367;48.414;9.872;2023-01-28T05:03:05;12.37012863;;12.1672945;;;;;;;
71550;SPS30;59367;48.414;9.872;2023-01-28T05:04:10;12.096385;;12.06889343;;;;;;;
71550;SPS30;59367;48.414;9.872;2023-01-28T05:05:15;11.99420929;;11.89787102;;;;;;;
71550;SPS30;59367;48.414;9.872;2023-01-28T05:06:19;13.31832695;;13.11496449;;;;;;;
71550;SPS30;59367;48.414;9.872;2023-01-28T05:07:24;13.2995739;;13.01920795;;;;;;;
71550;SPS30;59367;48.414;9.872;2023-01-28T05:08:29;12.61216068;;12.51907444;;;;;;;
71550;SPS30;59367;48.414;9.872;2023-01-28T05:09:33;11.99297047;;11.88157463;;;;;;;
71550;SPS30;59367;48.414;9.872;2023-01-28T05:10:38;12.05063725;;11.89697266;;;;;;;
71550;SPS30;59367;48.414;9.872;2023-01-28T05:11:43;13.03810787;;12.7067461;;;;;;;
71550;SPS30;59367;48.414;9.872;2023-01-28T05:12:48;12.78808498;;12.46561241;;;;;;;
71550;SPS30;59367;48.414;9.872;2023-01-28T05:13:52;13.1365633;;12.94240665;;;;;;;
71550;SPS30;59367;48.414;9.872;2023-01-28T05:14:57;12.84698868;;12.63270473;;;;;;;
71550;SPS30;59367;48.414;9.872;2023-01-28T05:16:02;12.56842995;;12.41830063;;;;;;;
71550;SPS30;59367;48.414;9.872;2023-01-28T05:17:07;11.61014271;;11.47558308;;;;;;;
71550;SPS30;59367;48.414;9.872;2023-01-28T05:18:12;11.19187737;;11.09165287;;;;;;;
71550;SPS30;59367;48.414;9.872;2023-01-28T05:19:17;13.54855633;;13.52244186;;;;;;;